Time;durP1;ratioP1;P1;durP2;ratioP2;P2;SDS_P1;SDS_P2;PMS_P1;PMS_P2;Temp;Humidity;BMP_temperature;BMP_pressure;BME280_temperature;BME280_humidity;BME280_pressure;Samples;Min_cycle;Max_cycle;Signal;HPM_P1;HPM_P2
2023/10/14 00:01:03;;;;;;;6.80;1.50;;;;;;;13.40;100.00;100022.88;5010090;28;20037;-66
2023/10/14 00:03:32;;;;;;;8.10;1.65;;;;;;;13.34;100.00;100041.69;5010310;28;20028;-67
2023/10/14 00:06:06;;;;;;;7.10;1.52;;;;;;;13.33;100.00;100045.63;5010517;28;20038;-67
2023/10/14 00:08:31;;;;;;;5.63;1.40;;;;;;;13.26;100.00;100048.97;5010640;28;20045;-68
2023/10/14 00:11:07;;;;;;;7.15;1.33;;;;;;;13.19;100.00;100045.94;5010325;28;20030;-68
2023/10/14 00:13:42;;;;;;;8.13;1.65;;;;;;;13.17;100.00;100044.66;5010259;28;20031;-70
2023/10/14 00:16:29;;;;;;;6.85;1.23;;;;;;;13.20;100.00;100067.00;5010226;28;20058;-70
2023/10/14 00:18:56;;;;;;;6.80;1.20;;;;;;;13.22;100.00;100064.72;4992084;28;20108;-70
2023/10/14 00:21:26;;;;;;;5.15;0.90;;;;;;;13.20;100.00;100050.34;5010097;28;20053;-70
2023/10/14 00:23:57;;;;;;;5.72;0.82;;;;;;;13.17;100.00;100078.00;5010328;28;20112;-70
2023/10/14 00:26:26;;;;;;;4.60;1.10;;;;;;;13.11;100.00;100064.31;5010252;28;20097;-69
2023/10/14 00:31:35;;;;;;;7.53;1.15;;;;;;;12.98;100.00;100073.78;5010179;28;20036;-70
2023/10/14 00:34:00;;;;;;;1.95;0.70;;;;;;;13.01;100.00;100077.81;5009866;28;20038;-69
2023/10/14 00:36:31;;;;;;;1.33;0.52;;;;;;;12.99;100.00;100078.16;5009910;28;20088;-69
2023/10/14 00:39:00;;;;;;;1.52;0.60;;;;;;;12.95;100.00;100074.44;5009748;28;20429;-68
2023/10/14 00:41:26;;;;;;;8.45;1.10;;;;;;;12.99;100.00;100072.59;5009884;28;20397;-68
2023/10/14 00:43:52;;;;;;;5.05;0.95;;;;;;;12.98;100.00;100103.47;5009679;28;20040;-68
2023/10/14 00:46:23;;;;;;;3.92;0.70;;;;;;;13.02;100.00;100119.13;5009740;28;20034;-68
2023/10/14 00:48:50;;;;;;;7.10;1.40;;;;;;;13.10;100.00;100122.97;5009636;28;20058;-69
2023/10/14 00:51:19;;;;;;;6.78;1.25;;;;;;;13.16;100.00;100134.69;5009344;28;20530;-67
2023/10/14 00:53:52;;;;;;;4.72;1.08;;;;;;;13.19;100.00;100147.88;5009730;28;20034;-67
2023/10/14 00:56:27;;;;;;;4.60;1.02;;;;;;;13.19;100.00;100140.38;5010748;28;20022;-68
2023/10/14 00:58:58;;;;;;;6.18;1.30;;;;;;;13.23;100.00;100137.72;5013421;28;20076;-68
2023/10/14 01:01:28;;;;;;;4.95;1.00;;;;;;;13.25;100.00;100146.53;5013396;28;20022;-67
2023/10/14 01:03:56;;;;;;;7.28;1.20;;;;;;;13.27;100.00;100142.25;5013494;28;20041;-67
2023/10/14 01:06:34;;;;;;;5.05;1.10;;;;;;;13.24;100.00;100145.69;5013632;28;20029;-67
2023/10/14 01:09:10;;;;;;;5.88;1.67;;;;;;;13.16;100.00;100151.34;5013863;28;20036;-67
2023/10/14 01:11:36;;;;;;;2.83;1.05;;;;;;;13.10;100.00;100159.09;5013697;28;20107;-67
2023/10/14 01:14:05;;;;;;;2.83;0.90;;;;;;;13.09;100.00;100174.91;5013723;28;20026;-67
2023/10/14 01:16:37;;;;;;;11.40;1.58;;;;;;;12.85;100.00;100191.44;5013502;28;20033;-69
2023/10/14 01:19:03;;;;;;;5.50;1.60;;;;;;;12.67;100.00;100199.91;5013189;28;20453;-68
2023/10/14 01:21:28;;;;;;;10.02;1.80;;;;;;;12.53;100.00;100182.66;5012810;28;20048;-69
2023/10/14 01:23:58;;;;;;;11.95;2.40;;;;;;;12.39;100.00;100192.06;5013080;28;20060;-68
2023/10/14 01:26:24;;;;;;;11.05;2.17;;;;;;;12.30;100.00;100183.78;5012821;28;20454;-67
2023/10/14 01:28:58;;;;;;;12.57;1.98;;;;;;;12.26;100.00;100193.94;5012733;28;20462;-68
2023/10/14 01:31:42;;;;;;;10.52;1.90;;;;;;;12.29;100.00;100204.34;5013302;28;20026;-67
2023/10/14 01:34:07;;;;;;;10.63;2.13;;;;;;;12.30;100.00;100213.47;5013091;28;20095;-67
2023/10/14 01:36:41;;;;;;;12.40;1.95;;;;;;;12.32;100.00;100223.09;5012980;28;20430;-67
2023/10/14 01:39:14;;;;;;;10.70;2.33;;;;;;;12.40;100.00;100229.75;5012248;28;20030;-68
2023/10/14 01:41:39;;;;;;;11.00;2.03;;;;;;;12.40;100.00;100240.00;5012849;28;20104;-69
2023/10/14 01:44:09;;;;;;;9.50;2.00;;;;;;;12.40;100.00;100234.47;5012514;28;20117;-68
2023/10/14 01:46:39;;;;;;;9.43;1.83;;;;;;;12.43;100.00;100253.22;5012637;28;20026;-68
2023/10/14 01:49:11;;;;;;;11.13;2.00;;;;;;;12.44;100.00;100257.63;5012360;28;20052;-68
2023/10/14 01:51:37;;;;;;;11.38;2.20;;;;;;;12.43;100.00;100290.09;5012332;28;20077;-68
2023/10/14 01:54:04;;;;;;;17.00;2.90;;;;;;;12.24;100.00;100296.03;5012318;28;20172;-68
2023/10/14 01:56:30;;;;;;;13.95;2.40;;;;;;;12.02;100.00;100297.88;5012399;28;20033;-68
2023/10/14 01:58:59;;;;;;;18.02;2.58;;;;;;;11.94;100.00;100290.38;4994109;28;20029;-67
2023/10/14 02:01:27;;;;;;;17.77;2.95;;;;;;;11.88;100.00;100288.94;5012014;28;20025;-68
2023/10/14 02:03:54;;;;;;;19.65;3.17;;;;;;;11.82;100.00;100312.38;5012299;28;20129;-67
2023/10/14 02:06:26;;;;;;;15.93;3.47;;;;;;;11.77;100.00;100320.88;4994323;28;20025;-68
2023/10/14 02:08:53;;;;;;;16.65;2.63;;;;;;;11.86;100.00;100322.50;5011180;28;20462;-68
2023/10/14 02:11:23;;;;;;;21.58;3.03;;;;;;;11.85;100.00;100334.72;5011893;28;20069;-68
2023/10/14 02:13:50;;;;;;;17.80;2.70;;;;;;;11.85;100.00;100336.69;5012086;28;20060;-68
2023/10/14 02:16:16;;;;;;;15.77;2.85;;;;;;;11.91;100.00;100353.97;5011610;28;20095;-68
2023/10/14 02:18:42;;;;;;;17.75;3.53;;;;;;;11.88;100.00;100351.84;5011769;28;20038;-68
2023/10/14 02:21:11;;;;;;;16.05;2.65;;;;;;;11.89;100.00;100359.84;5011626;28;20092;-68
2023/10/14 02:23:45;;;;;;;17.23;2.65;;;;;;;11.88;100.00;100362.94;5012260;28;20113;-68
2023/10/14 02:26:22;;;;;;;;;;;;;;;11.95;100.00;100374.38;5011974;28;20026;-68
2023/10/14 02:28:48;;;;;;;20.08;2.60;;;;;;;11.96;100.00;100373.19;5011670;28;19944;-68
2023/10/14 02:31:18;;;;;;;19.63;2.80;;;;;;;12.03;100.00;100390.19;5011551;28;20531;-68
2023/10/14 02:33:47;;;;;;;15.38;2.50;;;;;;;12.06;100.00;100392.31;5011486;28;20117;-68
2023/10/14 02:36:16;;;;;;;16.90;2.53;;;;;;;12.07;100.00;100395.91;5011403;28;20022;-68
2023/10/14 02:38:48;;;;;;;21.05;3.00;;;;;;;12.04;100.00;100404.88;4993477;28;20057;-68
2023/10/14 02:41:16;;;;;;;16.08;3.00;;;;;;;12.02;100.00;100410.75;5011339;28;20327;-68
2023/10/14 02:43:42;;;;;;;12.65;2.65;;;;;;;11.81;100.00;100402.22;5011485;28;20072;-68
2023/10/14 02:46:11;;;;;;;14.23;2.45;;;;;;;11.96;100.00;100437.78;5011482;28;20386;-67
2023/10/14 02:48:54;;;;;;;11.65;2.33;;;;;;;11.93;100.00;100437.63;5011531;28;20107;-68
2023/10/14 02:51:29;;;;;;;18.40;2.60;;;;;;;11.89;100.00;100440.22;5011311;28;20040;-68
2023/10/14 02:53:56;;;;;;;15.88;2.67;;;;;;;11.82;100.00;100459.28;5011029;28;20041;-67
2023/10/14 02:56:32;;;;;;;16.50;2.88;;;;;;;11.79;100.00;100457.19;5010909;28;20034;-67
2023/10/14 02:58:58;;;;;;;15.90;2.50;;;;;;;11.78;100.00;100472.97;5011042;28;20034;-67
2023/10/14 03:01:31;;;;;;;13.48;2.58;;;;;;;11.75;100.00;100473.63;5011002;28;20033;-67
2023/10/14 03:03:57;;;;;;;14.43;2.70;;;;;;;11.67;100.00;100479.94;5010972;28;20481;-67
2023/10/14 03:06:22;;;;;;;19.02;3.50;;;;;;;11.61;100.00;100487.63;5010909;28;20032;-68
2023/10/14 03:08:57;;;;;;;17.77;2.88;;;;;;;11.59;100.00;100494.59;5010927;28;20030;-67
2023/10/14 03:11:26;;;;;;;14.52;2.50;;;;;;;11.52;100.00;100497.88;5010419;28;20045;-67
2023/10/14 03:13:52;;;;;;;17.58;3.00;;;;;;;11.49;100.00;100512.34;5010949;28;20056;-67
2023/10/14 03:16:17;;;;;;;13.05;2.40;;;;;;;11.44;100.00;100513.31;5010776;28;20139;-67
2023/10/14 03:18:44;;;;;;;15.95;2.70;;;;;;;11.37;100.00;100513.75;5010619;28;20469;-67
2023/10/14 03:21:09;;;;;;;18.48;2.97;;;;;;;11.36;100.00;100516.88;5010350;28;20037;-68
2023/10/14 03:23:35;;;;;;;14.52;2.50;;;;;;;11.32;100.00;100529.69;4992749;28;20014;-67
2023/10/14 03:26:20;;;;;;;13.95;2.60;;;;;;;11.28;100.00;100539.81;5011241;28;20190;-67
2023/10/14 03:28:50;;;;;;;14.95;2.75;;;;;;;11.19;100.00;100545.28;5010494;28;20125;-68
2023/10/14 03:31:17;;;;;;;20.15;3.13;;;;;;;11.18;100.00;100546.41;5010436;28;20100;-68
2023/10/14 03:33:43;;;;;;;13.98;2.72;;;;;;;11.13;100.00;100566.75;5010191;28;20022;-67
2023/10/14 03:36:15;;;;;;;21.42;3.47;;;;;;;11.08;100.00;100562.16;5010281;28;20112;-68
2023/10/14 03:38:42;;;;;;;13.82;2.38;;;;;;;11.05;100.00;100573.06;5010219;28;20069;-68
2023/10/14 03:41:21;;;;;;;17.33;3.00;;;;;;;11.02;100.00;100576.44;5010146;28;20521;-67
2023/10/14 03:46:35;;;;;;;16.20;2.78;;;;;;;10.94;100.00;100591.88;5010655;28;20045;-67
2023/10/14 03:49:06;;;;;;;15.18;2.72;;;;;;;10.91;100.00;100582.22;5011064;28;20034;-68
2023/10/14 03:51:32;;;;;;;18.92;2.90;;;;;;;10.83;100.00;100584.97;5010762;28;20109;-68
2023/10/14 03:54:06;;;;;;;19.05;3.08;;;;;;;10.86;100.00;100603.72;5010515;28;20036;-68
2023/10/14 03:56:34;;;;;;;19.77;2.80;;;;;;;10.82;100.00;100602.69;5010836;28;20038;-67
2023/10/14 03:59:03;;;;;;;14.07;2.38;;;;;;;10.79;100.00;100606.06;4992765;28;20022;-68
2023/10/14 04:01:43;;;;;;;21.30;3.78;;;;;;;10.74;100.00;100616.16;5010249;28;20038;-68
2023/10/14 04:04:18;;;;;;;15.32;2.83;;;;;;;10.75;100.00;100616.94;5010339;28;20128;-67
2023/10/14 04:09:24;;;;;;;18.40;2.95;;;;;;;10.64;100.00;100627.44;5010473;28;20096;-67
2023/10/14 04:11:52;;;;;;;19.30;2.92;;;;;;;10.61;100.00;100639.13;5010431;28;20096;-67
2023/10/14 04:14:22;;;;;;;22.35;3.53;;;;;;;10.55;100.00;100646.72;5010240;28;20030;-67
2023/10/14 04:16:48;;;;;;;21.90;4.00;;;;;;;10.51;100.00;100650.41;5010697;28;20080;-67
2023/10/14 04:19:44;;;;;;;21.20;3.97;;;;;;;10.46;100.00;100654.13;5010295;28;20022;-67
2023/10/14 04:22:32;;;;;;;17.33;3.47;;;;;;;10.41;100.00;100652.28;5009902;28;20046;-67
2023/10/14 04:27:45;;;;;;;20.48;3.67;;;;;;;10.27;100.00;100668.84;5010031;28;20052;-67
2023/10/14 04:30:12;;;;;;;22.48;4.90;;;;;;;10.27;100.00;100679.91;5009881;28;20045;-67
2023/10/14 04:32:42;;;;;;;18.58;3.17;;;;;;;10.23;100.00;100684.44;5012939;28;20606;-67
2023/10/14 04:35:08;;;;;;;17.73;2.95;;;;;;;10.20;100.00;100690.56;5013821;28;20048;-67
2023/10/14 04:37:52;;;;;;;17.17;3.00;;;;;;;10.15;100.00;100688.72;5013707;28;20025;-67
2023/10/14 04:43:00;;;;;;;14.73;2.50;;;;;;;10.07;100.00;100702.44;5013933;28;20049;-68
2023/10/14 04:45:31;;;;;;;17.15;3.05;;;;;;;10.04;100.00;100714.13;5013381;28;20049;-68
2023/10/14 04:47:58;;;;;;;19.73;3.38;;;;;;;9.98;100.00;100718.94;5013507;28;20415;-67
2023/10/14 04:50:23;;;;;;;15.88;2.30;;;;;;;9.93;100.00;100719.00;5013462;28;20030;-67
2023/10/14 04:52:49;;;;;;;17.63;2.92;;;;;;;9.91;100.00;100722.09;5013300;28;20036;-68
2023/10/14 04:55:25;;;;;;;18.60;2.60;;;;;;;9.90;100.00;100728.72;5013421;28;20058;-68
2023/10/14 05:00:47;;;;;;;16.30;2.72;;;;;;;9.89;100.00;100751.16;5013357;28;20048;-68
2023/10/14 05:03:13;;;;;;;15.40;2.78;;;;;;;9.87;100.00;100751.44;5013469;28;20037;-68
2023/10/14 05:05:43;;;;;;;18.67;2.65;;;;;;;9.81;100.00;100750.72;5013315;28;20052;-68
2023/10/14 05:08:15;;;;;;;16.25;2.75;;;;;;;9.79;100.00;100752.97;5013359;28;20080;-68
2023/10/14 05:10:42;;;;;;;17.30;2.78;;;;;;;9.76;100.00;100759.09;5013621;28;20034;-68
2023/10/14 05:13:12;;;;;;;16.33;2.70;;;;;;;9.75;100.00;100762.16;5013317;28;20044;-68
2023/10/14 05:15:40;;;;;;;18.65;3.00;;;;;;;9.70;100.00;100763.06;4995438;28;20033;-68
2023/10/14 05:18:07;;;;;;;16.33;2.90;;;;;;;9.72;100.00;100779.34;5013226;28;20026;-67
2023/10/14 05:20:55;;;;;;;17.10;3.00;;;;;;;9.67;100.00;100774.72;5012849;28;20446;-68
2023/10/14 05:23:24;;;;;;;18.85;3.25;;;;;;;9.67;100.00;100789.38;5012897;28;20115;-68
2023/10/14 05:25:56;;;;;;;15.25;2.90;;;;;;;9.64;100.00;100797.41;5012520;28;20017;-68
2023/10/14 05:28:26;;;;;;;19.70;3.03;;;;;;;9.63;100.00;100795.78;5012863;28;20034;-68
2023/10/14 05:30:55;;;;;;;21.20;3.30;;;;;;;9.62;100.00;100791.38;5013019;28;20073;-68
2023/10/14 05:33:21;;;;;;;18.45;3.50;;;;;;;9.58;100.00;100793.09;5013015;28;20528;-68
2023/10/14 05:35:48;;;;;;;21.25;3.78;;;;;;;9.61;100.00;100804.34;4995069;28;20037;-67
2023/10/14 05:38:14;;;;;;;20.48;3.22;;;;;;;9.62;100.00;100806.00;5012386;28;20048;-67
2023/10/14 05:40:41;;;;;;;15.13;2.85;;;;;;;9.65;100.00;100815.63;5012213;28;20026;-67
2023/10/14 05:43:07;;;;;;;19.48;3.13;;;;;;;9.68;100.00;100815.84;5011140;28;20399;-68
2023/10/14 05:45:36;;;;;;;18.65;3.13;;;;;;;9.72;100.00;100829.06;5012638;28;20462;-68
2023/10/14 05:48:07;;;;;;;22.20;3.25;;;;;;;9.73;100.00;100831.50;5012609;28;20029;-68
2023/10/14 05:50:35;;;;;;;17.92;2.88;;;;;;;9.72;100.00;100829.06;5012298;28;20041;-68
2023/10/14 05:53:01;;;;;;;15.95;2.80;;;;;;;9.71;100.00;100836.53;5012638;28;20026;-68
2023/10/14 05:55:29;;;;;;;16.77;2.75;;;;;;;9.66;100.00;100840.19;5012220;28;20040;-68
2023/10/14 05:57:58;;;;;;;13.73;3.00;;;;;;;9.65;100.00;100840.50;5012067;28;20018;-68
2023/10/14 06:00:25;;;;;;;17.17;2.80;;;;;;;9.60;100.00;100846.91;5012710;28;20029;-67
2023/10/14 06:02:55;;;;;;;17.92;3.05;;;;;;;9.58;100.00;100857.47;5012405;28;20446;-68
2023/10/14 06:05:25;;;;;;;15.48;2.70;;;;;;;9.56;100.00;100864.38;5012509;28;20026;-68
2023/10/14 06:07:59;;;;;;;19.08;2.83;;;;;;;9.55;100.00;100868.25;5012610;28;20034;-68
2023/10/14 06:10:26;;;;;;;14.65;2.72;;;;;;;9.53;100.00;100868.56;5012651;28;20026;-68
2023/10/14 06:12:52;;;;;;;19.77;2.92;;;;;;;9.54;100.00;100874.94;5012141;28;20041;-68
2023/10/14 06:15:19;;;;;;;18.95;3.00;;;;;;;9.53;100.00;100885.13;5012169;28;20093;-68
2023/10/14 06:17:49;;;;;;;16.23;2.58;;;;;;;9.56;100.00;100892.00;5012306;28;20025;-68
2023/10/14 06:20:16;;;;;;;18.75;3.08;;;;;;;9.59;100.00;100899.69;5012555;28;20030;-69
2023/10/14 06:22:43;;;;;;;17.58;3.10;;;;;;;9.65;100.00;100912.31;5012587;28;20089;-68
2023/10/14 06:25:15;;;;;;;17.40;2.65;;;;;;;9.71;100.00;100911.13;5012484;28;20026;-67
2023/10/14 06:27:45;;;;;;;19.30;3.13;;;;;;;9.78;100.00;100914.34;5012419;28;20077;-68
2023/10/14 06:30:20;;;;;;;18.55;3.17;;;;;;;9.84;100.00;100921.41;5011753;28;20121;-68
2023/10/14 06:32:47;;;;;;;21.15;3.45;;;;;;;9.90;100.00;100924.91;5012097;28;20072;-68
2023/10/14 06:35:17;;;;;;;16.33;3.08;;;;;;;9.94;100.00;100936.19;5011781;28;20453;-68
2023/10/14 06:37:45;;;;;;;18.45;3.10;;;;;;;10.03;100.00;100939.13;5011757;28;20422;-67
2023/10/14 06:40:18;;;;;;;14.15;2.67;;;;;;;10.06;100.00;100938.53;5011971;28;20065;-68
2023/10/14 06:42:43;;;;;;;17.80;3.00;;;;;;;10.10;100.00;100945.91;5011979;28;20181;-68
2023/10/14 06:45:13;;;;;;;21.23;3.30;;;;;;;10.14;100.00;100946.13;5012205;28;20514;-68
2023/10/14 06:47:45;;;;;;;18.80;2.58;;;;;;;10.13;100.00;100961.88;5012440;28;20030;-68
2023/10/14 06:50:12;;;;;;;19.92;3.25;;;;;;;10.11;100.00;100963.31;5012037;28;20042;-67
2023/10/14 06:52:37;;;;;;;16.00;2.70;;;;;;;10.09;100.00;100966.38;5011733;28;20108;-67
2023/10/14 06:55:07;;;;;;;17.30;2.72;;;;;;;10.06;100.00;100978.03;5011456;28;20525;-67
2023/10/14 06:57:35;;;;;;;16.90;3.22;;;;;;;10.03;100.00;100970.31;5011781;28;20049;-67
2023/10/14 07:00:00;;;;;;;17.00;3.15;;;;;;;9.94;100.00;100975.72;5011792;28;20025;-67
2023/10/14 07:02:25;;;;;;;17.88;2.97;;;;;;;9.96;100.00;100986.47;5011646;28;20038;-68
2023/10/14 07:04:51;;;;;;;20.40;3.15;;;;;;;9.95;100.00;100988.44;5011781;28;20041;-67
2023/10/14 07:07:19;;;;;;;14.98;2.80;;;;;;;9.95;100.00;100998.66;5011823;28;20056;-67
2023/10/14 07:09:44;;;;;;;19.25;3.15;;;;;;;9.96;100.00;100994.75;5011573;28;20445;-67
2023/10/14 07:12:19;;;;;;;16.20;3.35;;;;;;;9.97;100.00;101001.94;5011457;28;20073;-68
2023/10/14 07:14:45;;;;;;;18.90;3.70;;;;;;;10.02;100.00;101006.56;5011430;28;20127;-67
2023/10/14 07:17:12;;;;;;;19.98;2.88;;;;;;;10.04;100.00;100999.63;5011644;28;20473;-68
2023/10/14 07:19:37;;;;;;;19.55;2.90;;;;;;;10.11;100.00;101005.59;5011515;28;20030;-68
2023/10/14 07:22:07;;;;;;;17.30;3.35;;;;;;;10.15;100.00;101012.16;5011633;28;20054;-68
2023/10/14 07:24:33;;;;;;;14.75;2.72;;;;;;;10.19;100.00;101014.34;5011801;28;20537;-67
2023/10/14 07:26:58;;;;;;;13.80;3.05;;;;;;;10.20;100.00;101016.00;5011190;28;20160;-67
2023/10/14 07:29:24;;;;;;;15.48;2.65;;;;;;;10.18;100.00;101026.53;5011483;28;20046;-67
2023/10/14 07:31:49;;;;;;;16.85;2.92;;;;;;;10.23;100.00;101026.44;5011315;28;20099;-67
2023/10/14 07:34:16;;;;;;;20.13;2.97;;;;;;;10.25;100.00;101035.25;5011130;28;20362;-67
2023/10/14 07:36:41;;;;;;;17.90;2.60;;;;;;;10.36;100.00;101035.91;5011014;28;20030;-67
2023/10/14 07:41:52;;;;;;;21.63;2.97;;;;;;;10.56;100.00;101054.19;5011201;28;20049;-68
2023/10/14 07:44:19;;;;;;;16.92;2.80;;;;;;;10.56;100.00;101056.97;5011267;28;20117;-67
2023/10/14 07:46:44;;;;;;;16.35;3.10;;;;;;;10.54;100.00;101068.31;5011002;28;20109;-68
2023/10/14 07:49:09;;;;;;;16.95;2.85;;;;;;;10.54;100.00;101067.50;5010762;28;20026;-67
2023/10/14 07:51:35;;;;;;;22.15;3.45;;;;;;;10.58;100.00;101060.25;5010814;28;20049;-67
2023/10/14 07:54:00;;;;;;;17.85;2.72;;;;;;;10.63;100.00;101071.22;5010500;28;20029;-67
2023/10/14 07:56:25;;;;;;;18.88;2.97;;;;;;;10.68;100.00;101076.66;5010627;28;20030;-67
2023/10/14 07:58:53;;;;;;;22.38;3.20;;;;;;;10.73;100.00;101079.34;5010370;28;20060;-68
2023/10/14 08:01:22;;;;;;;19.27;3.10;;;;;;;10.74;100.00;101077.41;5010710;28;20033;-68
2023/10/14 08:03:48;;;;;;;15.23;2.60;;;;;;;10.71;100.00;101081.59;5010903;28;20393;-68
2023/10/14 08:06:17;;;;;;;17.05;2.90;;;;;;;10.70;100.00;101085.50;5010349;28;20057;-68
2023/10/14 08:08:47;;;;;;;16.90;3.08;;;;;;;10.68;100.00;101098.78;5011063;28;20099;-68
2023/10/14 08:11:14;;;;;;;16.75;2.60;;;;;;;10.72;100.00;101097.09;5011159;28;20397;-68
2023/10/14 08:13:43;;;;;;;17.75;2.97;;;;;;;10.78;100.00;101100.59;4993470;28;20109;-68
2023/10/14 08:16:11;;;;;;;19.30;2.80;;;;;;;10.81;100.00;101100.00;5010859;28;20044;-68
2023/10/14 08:18:37;;;;;;;17.20;3.08;;;;;;;10.86;100.00;101097.13;5010637;28;20104;-68
2023/10/14 08:21:03;;;;;;;18.17;3.10;;;;;;;10.90;100.00;101109.25;5010310;28;20072;-68
2023/10/14 08:23:29;;;;;;;19.77;3.03;;;;;;;10.93;100.00;101114.16;5010157;28;20022;-67
2023/10/14 08:25:55;;;;;;;19.23;3.03;;;;;;;11.01;100.00;101123.75;5010079;28;20045;-68
2023/10/14 08:28:22;;;;;;;15.80;3.17;;;;;;;11.07;100.00;101127.25;5009957;28;20435;-67
2023/10/14 08:30:50;;;;;;;17.75;2.60;;;;;;;11.13;100.00;101122.44;5009725;28;20061;-68
2023/10/14 08:33:18;;;;;;;18.83;2.65;;;;;;;11.18;100.00;101120.41;5010628;28;20116;-67
2023/10/14 08:35:44;;;;;;;17.85;3.25;;;;;;;11.22;100.00;101123.41;5009934;28;20358;-68
2023/10/14 08:38:19;;;;;;;16.65;2.63;;;;;;;11.26;100.00;101127.19;5010042;28;20041;-67
2023/10/14 08:40:46;;;;;;;16.45;2.35;;;;;;;11.30;100.00;101132.94;5010339;28;20120;-68
2023/10/14 08:43:16;;;;;;;17.35;3.03;;;;;;;11.35;100.00;101146.72;5010236;28;20041;-67
2023/10/14 08:45:47;;;;;;;17.02;2.97;;;;;;;11.39;100.00;101137.50;5010514;28;20155;-67
2023/10/14 08:48:15;;;;;;;16.38;3.00;;;;;;;11.44;100.00;101142.13;5010168;28;20076;-68
2023/10/14 08:50:41;;;;;;;19.90;2.95;;;;;;;11.48;100.00;101151.44;5010300;28;20022;-68
2023/10/14 08:53:09;;;;;;;17.02;2.78;;;;;;;11.51;100.00;101155.56;5010067;28;20030;-68
2023/10/14 08:55:36;;;;;;;16.80;3.10;;;;;;;11.54;100.00;101163.25;5010084;28;20117;-68
2023/10/14 08:58:04;;;;;;;12.70;2.13;;;;;;;11.57;100.00;101159.09;5010133;28;20030;-68
2023/10/14 09:00:36;;;;;;;14.30;2.53;;;;;;;11.62;100.00;101173.63;5009957;28;20048;-68
2023/10/14 09:03:02;;;;;;;16.27;2.80;;;;;;;11.66;100.00;101171.91;5010141;28;20033;-68
2023/10/14 09:05:30;;;;;;;16.80;2.70;;;;;;;11.72;100.00;101178.19;5009865;28;20117;-68
2023/10/14 09:07:57;;;;;;;20.23;2.92;;;;;;;11.77;100.00;101180.03;5009829;28;20038;-68
2023/10/14 09:10:26;;;;;;;14.52;2.70;;;;;;;11.82;100.00;101179.94;5009474;28;20473;-68
2023/10/14 09:13:06;;;;;;;14.98;2.78;;;;;;;11.90;100.00;101184.78;5009728;28;20080;-68
2023/10/14 09:15:34;;;;;;;20.60;3.00;;;;;;;11.91;99.59;101180.84;5009601;28;20053;-68
2023/10/14 09:18:00;;;;;;;18.15;2.83;;;;;;;11.94;100.00;101177.47;5011540;28;20034;-67
2023/10/14 09:20:37;;;;;;;14.23;2.50;;;;;;;11.98;100.00;101186.03;5013048;28;20168;-67
2023/10/14 09:23:14;;;;;;;16.58;2.80;;;;;;;12.02;100.00;101189.84;5012781;28;20049;-67
2023/10/14 09:25:45;;;;;;;16.33;3.10;;;;;;;12.02;97.75;101187.88;5013219;28;20053;-68
2023/10/14 09:28:12;;;;;;;19.33;3.00;;;;;;;12.09;100.00;101189.44;5013156;28;20040;-68
2023/10/14 09:30:39;;;;;;;17.40;2.80;;;;;;;12.13;99.67;101179.38;5013197;28;20022;-68
2023/10/14 09:33:06;;;;;;;18.55;3.00;;;;;;;12.19;99.93;101189.22;5012915;28;20100;-67
2023/10/14 09:35:32;;;;;;;18.00;2.85;;;;;;;12.23;98.72;101184.69;5013060;28;20032;-67
2023/10/14 09:37:59;;;;;;;20.60;3.30;;;;;;;12.32;99.89;101193.13;5012765;28;20441;-68
2023/10/14 09:40:25;;;;;;;16.60;3.05;;;;;;;12.37;97.06;101184.69;5012947;28;20448;-67
2023/10/14 09:42:52;;;;;;;19.58;3.00;;;;;;;12.46;97.57;101198.66;5013087;28;20101;-67
2023/10/14 09:45:19;;;;;;;16.88;3.03;;;;;;;12.49;93.52;101200.81;5013147;28;20060;-68
2023/10/14 09:47:45;;;;;;;18.30;2.90;;;;;;;12.52;92.57;101199.34;5013043;28;20049;-66
2023/10/14 09:50:13;;;;;;;16.38;2.60;;;;;;;12.62;92.38;101197.19;5012888;28;20033;-68
2023/10/14 09:52:42;;;;;;;17.73;2.47;;;;;;;12.77;91.08;101200.75;5012820;28;20029;-67
2023/10/14 09:55:13;;;;;;;15.82;2.45;;;;;;;12.89;89.98;101203.00;5012686;28;20033;-67
2023/10/14 09:57:42;;;;;;;16.35;3.30;;;;;;;12.91;90.70;101209.88;5013586;28;20026;-68
2023/10/14 10:00:08;;;;;;;16.65;2.83;;;;;;;12.89;84.29;101217.69;5012991;28;20053;-68
2023/10/14 10:02:34;;;;;;;29.45;3.35;;;;;;;12.80;82.37;101203.72;5012722;28;20152;-68
2023/10/14 10:05:02;;;;;;;15.15;2.80;;;;;;;12.70;83.54;101220.63;5012540;28;20044;-68
2023/10/14 10:07:53;;;;;;;13.85;2.72;;;;;;;12.67;83.83;101220.41;5012338;28;20374;-67
2023/10/14 10:10:25;;;;;;;16.15;2.88;;;;;;;12.55;80.69;101219.00;5012671;28;20085;-67
2023/10/14 10:12:55;;;;;;;19.23;2.97;;;;;;;12.53;80.92;101220.41;5012429;28;20112;-68
2023/10/14 10:15:23;;;;;;;13.25;2.30;;;;;;;12.55;84.60;101220.94;5012701;28;20025;-69
2023/10/14 10:18:16;;;;;;;15.07;2.63;;;;;;;12.60;82.86;101227.22;5012509;28;20026;-67
2023/10/14 10:20:55;;;;;;;17.20;3.30;;;;;;;12.70;82.71;101223.41;5008930;28;20061;-67
2023/10/14 10:23:22;;;;;;;15.15;2.55;;;;;;;12.74;80.71;101216.06;5012237;28;20102;-67
2023/10/14 10:25:49;;;;;;;15.68;2.80;;;;;;;12.74;78.20;101231.94;5012061;28;20041;-67
2023/10/14 10:28:37;;;;;;;15.15;2.97;;;;;;;12.70;79.19;101231.72;5012059;28;20125;-67
2023/10/14 10:31:09;;;;;;;18.58;2.80;;;;;;;12.69;78.05;101235.63;5012567;28;20112;-67
2023/10/14 10:33:49;;;;;;;13.82;2.60;;;;;;;12.75;78.74;101228.03;5012437;28;20212;-66
2023/10/14 10:36:21;;;;;;;12.85;2.55;;;;;;;12.75;78.99;101237.16;5011714;28;20033;-68
2023/10/14 10:38:47;;;;;;;19.63;2.75;;;;;;;12.73;78.76;101231.09;5011879;28;20049;-68
2023/10/14 10:41:26;;;;;;;19.33;2.92;;;;;;;12.75;77.27;101244.69;5011363;28;20076;-68
2023/10/14 10:44:03;;;;;;;17.58;2.90;;;;;;;12.81;79.72;101232.31;5011771;28;20076;-68
2023/10/14 10:46:42;;;;;;;17.55;2.80;;;;;;;12.89;77.74;101251.00;5011856;28;20037;-68
2023/10/14 10:49:10;;;;;;;16.77;2.63;;;;;;;12.97;75.36;101249.47;5011581;28;20026;-68
2023/10/14 10:51:41;;;;;;;17.30;2.58;;;;;;;13.02;76.81;101245.75;5011915;28;20026;-66
2023/10/14 10:54:09;;;;;;;15.43;2.67;;;;;;;13.04;75.35;101263.72;5011357;28;20037;-68
2023/10/14 10:56:34;;;;;;;19.67;3.08;;;;;;;13.07;75.34;101251.16;5011562;28;20030;-67
2023/10/14 10:59:04;;;;;;;15.95;3.00;;;;;;;13.11;77.52;101254.97;5011353;28;20026;-67
2023/10/14 11:01:33;;;;;;;17.20;2.80;;;;;;;13.19;77.69;101256.16;5011792;28;20026;-67
2023/10/14 11:04:08;;;;;;;17.45;2.88;;;;;;;13.24;77.14;101256.88;5011446;28;20046;-67
2023/10/14 11:06:34;;;;;;;18.83;2.80;;;;;;;13.27;78.60;101258.22;5011820;28;20129;-67
2023/10/14 11:09:00;;;;;;;13.40;2.50;;;;;;;13.29;75.73;101263.44;5011559;28;20509;-67
2023/10/14 11:11:33;;;;;;;20.08;2.88;;;;;;;13.31;77.43;101262.00;5011289;28;20038;-66
2023/10/14 11:14:02;;;;;;;17.50;2.63;;;;;;;13.32;77.45;101257.28;5011627;28;20057;-67
2023/10/14 11:16:29;;;;;;;17.00;2.67;;;;;;;13.34;77.63;101254.97;5012003;28;20356;-67
2023/10/14 11:18:55;;;;;;;14.50;2.40;;;;;;;13.34;74.21;101258.59;5011520;28;20034;-67
2023/10/14 11:21:21;;;;;;;16.85;2.97;;;;;;;13.41;73.27;101267.34;5011530;28;20080;-67
2023/10/14 11:23:47;;;;;;;15.77;2.58;;;;;;;13.46;73.60;101271.13;5011769;28;20195;-67
2023/10/14 11:26:16;;;;;;;13.95;2.65;;;;;;;13.49;70.69;101262.16;5011168;28;20030;-67
2023/10/14 11:28:45;;;;;;;14.77;2.60;;;;;;;13.52;71.85;101272.66;5011396;28;20029;-68
2023/10/14 11:31:14;;;;;;;15.25;2.53;;;;;;;13.49;69.80;101260.22;5011577;28;20041;-67
2023/10/14 11:33:45;;;;;;;16.80;2.80;;;;;;;13.48;68.04;101260.50;5011696;28;20080;-67
2023/10/14 11:36:17;;;;;;;14.63;2.40;;;;;;;13.41;70.55;101267.34;5011691;28;20108;-67
2023/10/14 11:38:43;;;;;;;13.23;2.67;;;;;;;13.45;70.79;101273.09;5011648;28;20152;-67
2023/10/14 11:41:10;;;;;;;14.98;2.70;;;;;;;13.48;65.75;101279.97;5009826;28;20026;-67
2023/10/14 11:43:35;;;;;;;16.95;2.95;;;;;;;13.50;64.68;101272.13;5010841;28;20161;-68